Time;durP1;ratioP1;P1;durP2;ratioP2;P2;SDS_P1;SDS_P2;PMS_P1;PMS_P2;Temp;Humidity;BMP_temperature;BMP_pressure;BME280_temperature;BME280_humidity;BME280_pressure;Samples;Min_cycle;Max_cycle;Signal;HPM_P1;HPM_P2
2022/09/29 00:01:31;;;;;;;2.80;2.60;;;16.60;65.00;17.90;99190.00;;;;4970944;28;20202;-43
2022/09/29 00:03:57;;;;;;;2.80;2.60;;;16.50;65.00;17.90;99177.00;;;;4970786;28;20181;-45
2022/09/29 00:06:23;;;;;;;2.77;2.57;;;16.50;65.10;17.90;99188.00;;;;4970518;28;20190;-44
2022/09/29 00:08:49;;;;;;;2.90;2.60;;;16.50;65.40;17.90;99183.00;;;;4969451;28;20188;-45
2022/09/29 00:11:17;;;;;;;5.57;2.47;;;16.50;65.40;17.90;99185.00;;;;4969211;28;20552;-44
2022/09/29 00:13:43;;;;;;;2.70;2.50;;;16.50;65.40;17.80;99180.00;;;;4970285;28;20187;-45
2022/09/29 00:16:12;;;;;;;2.70;2.50;;;16.50;65.00;17.90;99182.00;;;;4970765;28;20223;-44
2022/09/29 00:18:37;;;;;;;2.60;2.40;;;16.50;65.40;17.80;99185.00;;;;4970672;28;20175;-44
2022/09/29 00:21:09;;;;;;;2.63;2.43;;;16.50;65.20;17.80;99175.00;;;;4970464;28;20199;-44
2022/09/29 00:23:35;;;;;;;2.90;2.70;;;16.40;65.30;17.80;99184.00;;;;4969467;28;20208;-45
2022/09/29 00:26:10;;;;;;;2.77;2.57;;;16.40;65.30;17.80;99169.00;;;;4970818;28;20287;-45
2022/09/29 00:28:37;;;;;;;2.63;2.43;;;16.40;65.40;17.80;99179.00;;;;4970562;28;20186;-45
2022/09/29 00:31:04;;;;;;;2.80;2.60;;;16.40;65.40;17.50;99176.00;;;;4970475;28;20185;-45
2022/09/29 00:33:34;;;;;;;2.70;2.50;;;16.40;65.50;17.80;99179.00;;;;4970336;28;20194;-44
2022/09/29 00:36:02;;;;;;;2.60;2.40;;;16.40;65.50;17.80;99165.00;;;;4970260;28;20222;-44
2022/09/29 00:38:28;;;;;;;2.73;2.53;;;16.40;65.50;17.70;99180.00;;;;4969963;28;20220;-44
2022/09/29 00:40:54;;;;;;;2.80;2.60;;;16.40;65.50;17.70;99169.00;;;;4970004;28;20298;-46
2022/09/29 00:43:48;;;;;;;2.67;2.47;;;16.40;65.50;17.70;99171.00;;;;4968640;28;20186;-45
2022/09/29 00:46:15;;;;;;;2.60;2.40;;;16.40;65.40;17.70;99165.00;;;;4963838;28;20216;-46
2022/09/29 00:48:41;;;;;;;2.43;2.23;;;16.40;65.40;17.70;99176.00;;;;4970221;28;20184;-44
2022/09/29 00:51:07;;;;;;;4.20;2.40;;;16.40;65.40;17.70;99174.00;;;;4953220;28;20190;-44
2022/09/29 00:53:32;;;;;;;3.00;2.70;;;16.40;65.40;17.70;99185.00;;;;4968535;28;20173;-45
2022/09/29 00:56:10;;;;;;;2.70;2.50;;;16.40;65.50;17.70;99175.00;;;;4968615;28;20198;-44
2022/09/29 00:59:02;;;;;;;2.50;2.30;;;16.30;65.40;17.60;99180.00;;;;4969613;28;20189;-45
2022/09/29 01:01:30;;;;;;;2.60;2.40;;;16.30;65.40;17.60;99178.00;;;;4968640;28;20325;-44
2022/09/29 01:04:06;;;;;;;2.60;2.40;;;16.30;65.30;17.60;99182.00;;;;4969595;28;20264;-45
2022/09/29 01:06:35;;;;;;;2.27;2.17;;;16.30;65.40;17.60;99180.00;;;;4969247;28;20668;-44
2022/09/29 01:09:16;;;;;;;2.50;2.30;;;16.30;65.40;17.60;99175.00;;;;4969277;28;20178;-45
2022/09/29 01:11:42;;;;;;;2.80;2.60;;;16.30;65.40;17.60;99180.00;;;;4968379;28;20167;-45
2022/09/29 01:14:08;;;;;;;2.80;2.60;;;16.30;65.20;17.60;99174.00;;;;4969550;28;20269;-44
2022/09/29 01:16:36;;;;;;;2.70;2.50;;;16.20;65.30;17.50;99175.00;;;;4968564;28;20177;-44
2022/09/29 01:19:14;;;;;;;2.63;2.43;;;16.30;65.20;17.50;99179.00;;;;4969870;28;20188;-45
2022/09/29 01:21:48;;;;;;;2.50;2.30;;;16.30;65.20;17.50;99175.00;;;;4968547;28;20270;-44
2022/09/29 01:24:31;;;;;;;4.43;2.20;;;16.20;65.10;17.50;99181.00;;;;4969484;28;20172;-45
2022/09/29 01:27:23;;;;;;;2.30;2.10;;;16.20;65.10;17.50;99178.00;;;;4968533;28;20702;-44
2022/09/29 01:30:48;;;;;;;3.27;2.50;;;16.20;65.20;17.50;99184.00;;;;4969409;28;20696;-46
2022/09/29 01:33:38;;;;;;;2.57;2.37;;;16.10;64.80;17.40;99175.00;;;;4954963;28;20206;-46
2022/09/29 01:36:16;;;;;;;2.60;2.40;;;16.10;65.00;17.40;99190.00;;;;4968273;28;20205;-45
2022/09/29 01:39:13;;;;;;;2.57;2.37;;;16.10;65.10;17.20;99172.00;;;;4968335;28;20165;-44
2022/09/29 01:42:17;;;;;;;2.67;2.40;;;16.10;64.90;17.40;99189.00;;;;4968589;28;20677;-43
2022/09/29 01:44:54;;;;;;;2.70;2.50;;;16.10;65.10;17.30;99183.00;;;;4967749;28;20198;-44
2022/09/29 01:47:26;;;;;;;2.57;2.33;;;16.00;64.90;17.30;99187.00;;;;4968227;28;20169;-44
2022/09/29 01:49:59;;;;;;;2.50;2.30;;;16.00;64.90;17.30;99178.00;;;;4968044;28;20197;-44
2022/09/29 01:52:28;;;;;;;2.73;2.47;;;16.00;64.40;17.30;99180.00;;;;4967960;28;20169;-45
2022/09/29 01:55:04;;;;;;;3.07;2.50;;;16.00;64.90;17.30;99195.00;;;;4967722;28;20213;-43
2022/09/29 01:57:46;;;;;;;2.40;2.20;;;16.00;64.70;17.30;99190.00;;;;4967679;28;20207;-44
2022/09/29 02:00:14;;;;;;;2.53;2.33;;;16.00;64.80;17.30;99198.00;;;;4967801;28;20228;-43
2022/09/29 02:03:20;;;;;;;2.60;2.33;;;16.00;64.70;17.30;99200.00;;;;4967921;28;20200;-44
2022/09/29 02:06:01;;;;;;;2.40;2.20;;;16.00;64.40;17.20;99196.00;;;;4968734;28;20192;-44
2022/09/29 02:08:41;;;;;;;2.40;2.20;;;15.90;64.70;17.20;99192.00;;;;4967797;28;20177;-44
2022/09/29 02:11:11;;;;;;;2.40;2.20;;;16.00;64.70;17.20;99192.00;;;;4969129;28;20264;-45
2022/09/29 02:13:56;;;;;;;2.40;2.20;;;15.90;64.50;17.20;99196.00;;;;4971232;28;20256;-43
2022/09/29 02:16:30;;;;;;;2.50;2.20;;;15.90;64.10;17.20;99188.00;;;;4971661;28;20726;-45
2022/09/29 02:19:04;;;;;;;2.47;2.27;;;15.90;64.40;17.20;99192.00;;;;4972636;28;20181;-44
2022/09/29 02:21:30;;;;;;;2.43;2.23;;;15.90;64.40;17.20;99191.00;;;;4971643;28;20220;-46
2022/09/29 02:23:55;;;;;;;2.70;2.50;;;15.90;64.40;17.10;99197.00;;;;4972453;28;20273;-44
2022/09/29 02:26:23;;;;;;;2.43;2.23;;;15.80;64.30;17.10;99194.00;;;;4971571;28;20185;-44
2022/09/29 02:28:49;;;;;;;2.40;2.20;;;15.80;64.30;17.10;99194.00;;;;4971727;28;20180;-46
2022/09/29 02:31:14;;;;;;;2.37;2.17;;;15.80;63.90;16.90;99191.00;;;;4971580;28;20173;-43
2022/09/29 02:33:40;;;;;;;3.07;2.27;;;15.80;64.40;17.10;99198.00;;;;4954820;28;20185;-44
2022/09/29 02:36:34;;;;;;;3.50;2.30;;;15.80;64.70;17.10;99201.00;;;;4972744;28;20196;-44
2022/09/29 02:39:20;;;;;;;2.50;2.30;;;15.80;64.90;17.10;99195.00;;;;4971731;28;20248;-44
2022/09/29 02:42:02;;;;;;;3.17;2.40;;;15.80;64.70;17.10;99191.00;;;;4971284;28;20205;-44
2022/09/29 02:44:59;;;;;;;2.40;2.20;;;15.80;64.60;17.10;99147.00;;;;4971266;28;20207;-44
2022/09/29 02:48:05;;;;;;;2.47;2.27;;;15.80;64.30;17.10;99200.00;;;;4970874;28;20184;-45
2022/09/29 02:51:08;;;;;;;2.20;2.10;;;15.90;64.30;17.00;99199.00;;;;4972435;28;20201;-44
2022/09/29 02:53:44;;;;;;;2.40;2.20;;;15.80;64.10;17.00;99193.00;;;;4971898;28;20176;-44
2022/09/29 02:56:27;;;;;;;2.30;2.10;;;15.80;64.10;17.00;99206.00;;;;4970631;28;20669;-44
2022/09/29 02:59:05;;;;;;;2.20;2.10;;;15.80;64.10;17.00;99200.00;;;;4970845;28;20231;-44
2022/09/29 03:01:32;;;;;;;2.37;2.20;;;15.80;64.00;17.00;99196.00;;;;4970671;28;20752;-45
2022/09/29 03:03:58;;;;;;;3.13;2.23;;;15.80;64.00;17.00;99200.00;;;;4971580;28;20227;-44
2022/09/29 03:06:24;;;;;;;3.40;2.50;;;15.80;63.90;17.00;99205.00;;;;4972045;28;20607;-44
2022/09/29 03:08:50;;;;;;;2.00;1.90;;;15.80;64.10;17.00;99194.00;;;;4970882;28;20161;-44
2022/09/29 03:11:15;;;;;;;2.37;2.17;;;15.70;63.90;16.90;99197.00;;;;4971806;28;21054;-44
2022/09/29 03:13:41;;;;;;;4.03;2.30;;;15.70;64.10;16.90;99200.00;;;;4971731;28;20184;-44
2022/09/29 03:16:07;;;;;;;4.37;2.13;;;15.70;63.90;16.90;99142.00;;;;4971908;28;20253;-45
2022/09/29 03:18:33;;;;;;;3.97;2.23;;;15.70;64.30;16.90;99202.00;;;;4971966;28;20227;-45
2022/09/29 03:20:58;;;;;;;5.27;2.03;;;15.60;64.40;16.90;99198.00;;;;4971795;28;20691;-46
2022/09/29 03:23:25;;;;;;;3.10;2.20;;;15.60;64.30;16.90;99203.00;;;;4970759;28;20192;-46
2022/09/29 03:25:50;;;;;;;4.23;2.20;;;15.70;64.30;16.90;99200.00;;;;4970738;28;20204;-45
2022/09/29 03:28:16;;;;;;;3.67;2.50;;;15.60;64.30;16.90;99203.00;;;;4971652;28;20176;-46
2022/09/29 03:30:42;;;;;;;2.60;2.40;;;15.60;64.00;16.90;99210.00;;;;4970448;28;20232;-45
2022/09/29 03:33:08;;;;;;;4.23;2.67;;;15.50;64.20;16.80;99206.00;;;;4971375;28;20188;-44
2022/09/29 03:35:33;;;;;;;3.57;2.30;;;15.50;64.10;16.80;99197.00;;;;4970884;28;20260;-44
2022/09/29 03:37:59;;;;;;;4.30;2.43;;;15.50;64.10;16.80;99201.00;;;;4971289;28;20261;-44
2022/09/29 03:40:26;;;;;;;3.23;2.13;;;15.50;64.00;16.80;99196.00;;;;4971277;28;20231;-44
2022/09/29 03:42:52;;;;;;;4.33;2.40;;;15.50;64.00;16.80;99203.00;;;;4971406;28;20177;-45
2022/09/29 03:45:17;;;;;;;2.60;2.40;;;15.50;63.90;16.80;99202.00;;;;4970996;28;20201;-44
2022/09/29 03:47:43;;;;;;;2.40;2.20;;;15.50;63.90;16.80;99204.00;;;;4971988;28;20169;-45
2022/09/29 03:50:09;;;;;;;2.50;2.30;;;15.50;63.90;16.80;99207.00;;;;4971733;28;20548;-44
2022/09/29 03:52:35;;;;;;;2.43;2.10;;;15.50;63.90;16.70;99206.00;;;;4971925;28;20177;-45
2022/09/29 03:55:00;;;;;;;2.50;2.30;;;15.50;63.90;16.70;99198.00;;;;4971356;28;20216;-45
2022/09/29 03:57:26;;;;;;;2.33;2.13;;;15.40;63.60;16.70;99206.00;;;;4971964;28;20193;-45
2022/09/29 03:59:52;;;;;;;2.67;2.47;;;15.40;63.50;16.70;99201.00;;;;4971657;28;20527;-44
2022/09/29 04:02:18;;;;;;;2.10;2.00;;;15.50;62.50;16.70;99203.00;;;;4968925;28;20228;-45
2022/09/29 04:04:44;;;;;;;2.87;2.37;;;15.40;63.60;16.70;99216.00;;;;4970855;28;20643;-44
2022/09/29 04:07:10;;;;;;;2.60;2.23;;;15.40;63.50;16.70;99217.00;;;;4971278;28;20189;-45
2022/09/29 04:09:36;;;;;;;2.70;2.10;;;15.40;63.20;16.60;99220.00;;;;4971613;28;20204;-44
2022/09/29 04:12:01;;;;;;;3.47;2.10;;;15.40;63.50;16.60;99207.00;;;;4971709;28;20260;-44
2022/09/29 04:14:27;;;;;;;6.10;2.47;;;15.40;62.80;16.60;99220.00;;;;4969630;28;20783;-46
2022/09/29 04:16:53;;;;;;;3.80;2.20;;;15.30;63.60;16.60;99228.00;;;;4969845;28;20180;-44
2022/09/29 04:19:18;;;;;;;4.17;2.10;;;15.30;62.80;16.60;99227.00;;;;4971280;28;20184;-44
2022/09/29 04:21:44;;;;;;;9.60;2.30;;;15.30;63.70;16.60;99233.00;;;;4971134;28;20247;-44
2022/09/29 04:24:10;;;;;;;3.23;2.17;;;15.30;63.70;16.60;99222.00;;;;4970983;28;20232;-45
2022/09/29 04:26:36;;;;;;;9.60;2.57;;;15.30;63.70;16.60;99230.00;;;;4970679;28;20264;-45
2022/09/29 04:29:02;;;;;;;4.93;2.43;;;15.30;63.80;16.60;99231.00;;;;4970959;28;20256;-44
2022/09/29 04:31:28;;;;;;;3.13;2.10;;;15.30;63.90;16.60;99238.00;;;;4970874;28;20264;-43
2022/09/29 04:33:53;;;;;;;5.00;2.30;;;15.30;63.40;16.50;99239.00;;;;4970439;28;20196;-44
2022/09/29 04:36:19;;;;;;;2.97;2.27;;;15.20;63.70;16.50;99236.00;;;;4970082;28;20207;-45
2022/09/29 04:38:45;;;;;;;4.17;2.00;;;15.20;63.60;16.50;99232.00;;;;4971053;28;20557;-43
2022/09/29 04:41:10;;;;;;;2.63;2.30;;;15.20;63.90;16.50;99239.00;;;;4970280;28;20201;-44
2022/09/29 04:43:36;;;;;;;8.93;2.47;;;15.20;63.90;16.50;99164.00;;;;4968588;28;20631;-43
2022/09/29 04:46:04;;;;;;;6.17;2.53;;;15.20;63.60;16.50;99236.00;;;;4970378;28;20193;-43
2022/09/29 04:48:30;;;;;;;4.93;2.20;;;15.20;63.50;16.50;99239.00;;;;4969862;28;20181;-43
2022/09/29 04:50:55;;;;;;;7.47;2.43;;;15.20;64.00;16.50;99242.00;;;;4970523;28;20244;-43
2022/09/29 04:53:21;;;;;;;6.07;2.60;;;15.30;63.70;16.40;99240.00;;;;4970480;28;20212;-43
2022/09/29 04:55:47;;;;;;;8.33;2.77;;;15.30;63.50;16.40;99246.00;;;;4970411;28;20217;-44
2022/09/29 04:58:13;;;;;;;7.73;2.50;;;15.30;63.10;16.40;99251.00;;;;4969900;28;20661;-43
2022/09/29 05:00:39;;;;;;;5.57;2.67;;;15.20;62.70;16.40;99244.00;;;;4970098;28;20173;-43
2022/09/29 05:03:05;;;;;;;3.43;2.37;;;15.20;62.80;16.40;99240.00;;;;4970106;28;20172;-44
2022/09/29 05:05:31;;;;;;;6.60;2.30;;;15.20;62.90;16.30;99237.00;;;;4969893;28;20218;-43
2022/09/29 05:07:58;;;;;;;7.73;2.30;;;15.20;62.90;16.30;99232.00;;;;4970033;28;20173;-44
2022/09/29 05:10:25;;;;;;;2.40;2.20;;;15.20;63.00;16.30;99246.00;;;;4969330;28;20216;-47
2022/09/29 05:12:50;;;;;;;2.50;2.30;;;15.20;62.90;16.30;99257.00;;;;4970034;28;20393;-43
2022/09/29 05:15:17;;;;;;;4.27;2.23;;;15.20;62.90;16.30;99254.00;;;;4969979;28;20864;-43
2022/09/29 05:17:43;;;;;;;3.87;2.17;;;15.20;63.10;16.30;99261.00;;;;4970139;28;20169;-43
2022/09/29 05:20:09;;;;;;;5.77;2.50;;;15.20;62.90;16.30;99257.00;;;;4970299;28;20677;-43
2022/09/29 05:22:35;;;;;;;7.20;2.40;;;15.30;63.30;16.30;99257.00;;;;4968508;28;20201;-43
2022/09/29 05:25:01;;;;;;;6.40;2.30;;;15.30;63.30;16.30;99267.00;;;;4967886;28;20208;-44
2022/09/29 05:27:26;;;;;;;5.80;2.53;;;15.30;63.40;16.30;99270.00;;;;4969793;28;20176;-43
2022/09/29 05:29:52;;;;;;;5.10;2.30;;;15.30;63.30;16.30;99263.00;;;;4970046;28;20668;-43
2022/09/29 05:32:18;;;;;;;5.83;2.40;;;15.30;63.50;16.30;99259.00;;;;4968404;28;20177;-47
2022/09/29 05:34:43;;;;;;;9.30;2.67;;;15.30;63.90;16.40;99260.00;;;;4966459;28;20195;-43
2022/09/29 05:37:10;;;;;;;20.00;3.40;;;15.30;66.00;16.40;99264.00;;;;4969379;28;20184;-44
2022/09/29 05:39:36;;;;;;;19.43;3.00;;;15.40;66.00;16.40;99272.00;;;;4969126;28;20177;-43
2022/09/29 05:42:05;;;;;;;10.90;2.60;;;15.40;66.00;16.40;99286.00;;;;4969662;28;20196;-43
2022/09/29 05:44:32;;;;;;;12.30;3.20;;;15.40;67.30;16.40;99292.00;;;;4968409;28;20197;-43
2022/09/29 05:46:58;;;;;;;12.13;3.47;;;15.50;66.40;16.40;99276.00;;;;4967850;28;20203;-44
2022/09/29 05:49:24;;;;;;;8.80;3.17;;;15.60;66.90;16.50;99287.00;;;;4968664;28;20646;-44
2022/09/29 05:51:50;;;;;;;9.93;2.90;;;15.60;66.80;16.50;99284.00;;;;4968953;28;20177;-44
2022/09/29 05:54:15;;;;;;;16.53;3.33;;;15.70;66.70;16.50;99284.00;;;;4968925;28;20184;-44
2022/09/29 05:56:41;;;;;;;13.00;3.10;;;15.80;66.70;16.60;99289.00;;;;4969309;28;20193;-44
2022/09/29 05:59:08;;;;;;;7.97;2.77;;;15.90;66.50;16.60;99291.00;;;;4969341;28;20848;-45
2022/09/29 06:01:34;;;;;;;12.80;2.90;;;15.90;66.20;16.70;99293.00;;;;4970200;28;20216;-43
2022/09/29 06:04:00;;;;;;;11.13;2.90;;;16.10;66.10;16.70;99289.00;;;;4969618;28;20195;-44
2022/09/29 06:06:27;;;;;;;9.07;2.93;;;16.30;65.80;16.80;99306.00;;;;4969854;28;20204;-44
2022/09/29 06:08:53;;;;;;;11.03;2.97;;;16.40;65.60;16.90;99297.00;;;;4968723;28;20189;-43
2022/09/29 06:11:21;;;;;;;10.77;2.60;;;16.50;65.20;17.00;99295.00;;;;4970081;28;20315;-44
2022/09/29 06:13:49;;;;;;;6.47;2.67;;;16.70;64.90;17.10;99296.00;;;;4969746;28;20176;-44
2022/09/29 06:16:16;;;;;;;6.33;2.40;;;16.80;64.70;17.20;99270.00;;;;4969626;28;20667;-43
2022/09/29 06:18:42;;;;;;;8.10;2.77;;;17.00;64.40;17.30;99289.00;;;;4967845;28;20634;-44
2022/09/29 06:21:10;;;;;;;8.97;2.53;;;17.10;64.20;17.40;99283.00;;;;4969695;28;20189;-44
2022/09/29 06:23:36;;;;;;;3.73;2.40;;;17.20;64.10;17.50;99304.00;;;;4970079;28;20170;-44
2022/09/29 06:26:08;;;;;;;6.20;2.50;;;17.20;63.90;17.50;99296.00;;;;4969640;28;20405;-45
2022/09/29 06:28:33;;;;;;;8.33;2.50;;;17.30;63.90;17.60;99309.00;;;;4968689;28;20162;-44
2022/09/29 06:31:02;;;;;;;6.17;2.70;;;17.30;63.90;17.60;99307.00;;;;4969696;28;20223;-45
2022/09/29 06:33:28;;;;;;;3.70;2.03;;;17.40;63.90;17.70;99299.00;;;;4968706;28;20718;-43
2022/09/29 06:38:37;;;;;;;4.23;2.00;;;17.50;64.70;17.80;99318.00;;;;4969685;28;20243;-44
2022/09/29 06:41:04;;;;;;;4.60;2.00;;;17.60;63.90;17.90;99318.00;;;;4968410;28;20663;-44
2022/09/29 06:43:29;;;;;;;6.17;2.40;;;17.50;63.80;17.90;99314.00;;;;4969892;28;20188;-44
2022/09/29 06:45:55;;;;;;;5.53;2.17;;;17.60;63.90;17.90;99317.00;;;;4969369;28;20554;-44
2022/09/29 06:48:21;;;;;;;4.10;2.23;;;17.60;63.90;18.00;99315.00;;;;4969638;28;20184;-45
2022/09/29 06:50:47;;;;;;;3.90;2.40;;;17.60;64.60;18.00;99314.00;;;;4969413;28;20180;-44
2022/09/29 06:53:13;;;;;;;4.07;2.20;;;17.70;63.90;18.10;99316.00;;;;4970213;28;20180;-44
2022/09/29 06:55:39;;;;;;;4.57;2.33;;;17.70;63.80;18.10;99322.00;;;;4970249;28;20215;-44
2022/09/29 06:58:04;;;;;;;4.57;2.23;;;17.70;63.80;18.10;99317.00;;;;4972313;28;20197;-44
2022/09/29 07:00:32;;;;;;;3.50;2.00;;;17.70;63.90;18.20;99318.00;;;;4973122;28;20657;-43
2022/09/29 07:02:57;;;;;;;3.40;2.00;;;17.70;63.80;18.20;99319.00;;;;4973141;28;20176;-43
2022/09/29 07:05:23;;;;;;;3.13;2.20;;;17.70;63.80;18.20;99316.00;;;;4972854;28;20189;-44
2022/09/29 07:07:49;;;;;;;2.90;2.20;;;17.80;63.90;18.20;99325.00;;;;4972941;28;20311;-42
2022/09/29 07:10:15;;;;;;;3.43;2.03;;;17.80;63.90;18.20;99326.00;;;;4972723;28;20539;-43
2022/09/29 07:12:45;;;;;;;4.07;2.23;;;17.70;63.90;18.20;99314.00;;;;4972892;28;20173;-43
2022/09/29 07:15:12;;;;;;;2.90;1.93;;;17.80;64.10;18.30;99325.00;;;;4971167;28;20206;-43
2022/09/29 07:17:39;;;;;;;2.97;1.90;;;17.80;63.90;18.30;99317.00;;;;4972544;28;20230;-43
2022/09/29 07:20:06;;;;;;;3.03;2.17;;;17.80;63.90;18.30;99324.00;;;;4972526;28;20651;-43
2022/09/29 07:22:31;;;;;;;4.67;2.30;;;17.90;63.90;18.40;99324.00;;;;4972853;28;20213;-44
2022/09/29 07:24:57;;;;;;;2.63;2.23;;;17.80;63.90;18.40;99320.00;;;;4972359;28;20197;-44
2022/09/29 07:27:23;;;;;;;3.23;2.07;;;17.90;63.90;18.40;99321.00;;;;4972712;28;20209;-43
2022/09/29 07:29:52;;;;;;;4.40;2.50;;;17.90;63.90;18.40;99331.00;;;;4972362;28;20670;-44
2022/09/29 07:32:18;;;;;;;2.43;2.20;;;18.00;63.90;18.40;99331.00;;;;4972893;28;20284;-45
2022/09/29 07:34:44;;;;;;;2.43;2.10;;;18.00;63.90;18.50;99328.00;;;;4972014;28;20800;-44
2022/09/29 07:37:10;;;;;;;2.57;1.80;;;18.00;64.00;18.50;99336.00;;;;4972094;28;20623;-43
2022/09/29 07:39:36;;;;;;;3.03;2.10;;;18.00;64.10;18.50;99336.00;;;;4972089;28;20640;-45
2022/09/29 07:42:02;;;;;;;2.73;1.93;;;18.00;64.10;18.50;99338.00;;;;4972059;28;20459;-43
2022/09/29 07:44:30;;;;;;;2.03;1.80;;;18.00;64.00;18.50;99333.00;;;;4971550;28;20200;-42
2022/09/29 07:46:56;;;;;;;2.50;2.00;;;18.10;64.00;18.50;99345.00;;;;4972271;28;20529;-42
2022/09/29 07:49:22;;;;;;;2.10;1.90;;;18.00;63.90;18.50;99345.00;;;;4971955;28;20179;-43
2022/09/29 07:51:48;;;;;;;2.27;2.00;;;18.10;64.00;18.60;99354.00;;;;4971861;28;20206;-43
2022/09/29 07:54:14;;;;;;;2.23;1.90;;;18.10;64.90;18.60;99343.00;;;;4971724;28;20191;-42
2022/09/29 07:56:39;;;;;;;3.50;2.00;;;18.00;64.10;18.60;99349.00;;;;4971651;28;20223;-44
2022/09/29 07:59:05;;;;;;;2.00;1.80;;;18.10;64.30;18.60;99343.00;;;;4971628;28;20178;-44
2022/09/29 08:01:31;;;;;;;2.30;2.10;;;18.10;64.30;18.60;99344.00;;;;4971811;28;20212;-44
2022/09/29 08:03:57;;;;;;;2.73;1.90;;;18.10;64.30;18.60;99355.00;;;;4970132;28;20172;-45
2022/09/29 08:06:24;;;;;;;2.00;1.90;;;18.10;64.10;18.70;99353.00;;;;4971337;28;20203;-45
2022/09/29 08:08:49;;;;;;;2.17;1.90;;;18.10;64.10;18.70;99357.00;;;;4971272;28;20267;-44
2022/09/29 08:11:19;;;;;;;2.60;1.80;;;18.10;64.30;18.70;99359.00;;;;4971728;28;20259;-44
2022/09/29 08:13:45;;;;;;;2.27;2.07;;;18.10;64.30;18.70;99360.00;;;;4971535;28;20176;-44
2022/09/29 08:16:12;;;;;;;2.03;1.80;;;18.20;64.40;18.70;99359.00;;;;4970403;28;20648;-45
2022/09/29 08:18:38;;;;;;;2.37;1.87;;;18.10;64.40;18.70;99368.00;;;;4971931;28;20173;-44
2022/09/29 08:21:04;;;;;;;2.10;1.90;;;18.10;64.50;18.70;99366.00;;;;4971420;28;20251;-45
2022/09/29 08:23:34;;;;;;;2.00;1.80;;;18.10;64.50;18.70;99377.00;;;;4972234;28;20265;-44
2022/09/29 08:26:06;;;;;;;2.20;1.80;;;18.20;64.50;18.70;99364.00;;;;4971387;28;20312;-43
2022/09/29 08:28:33;;;;;;;2.53;1.87;;;18.20;64.40;18.80;99369.00;;;;4969895;28;20185;-43
2022/09/29 08:31:03;;;;;;;3.17;2.00;;;18.30;64.60;18.60;99368.00;;;;4970148;28;20263;-43
2022/09/29 08:33:29;;;;;;;1.90;1.80;;;18.20;64.70;18.80;99380.00;;;;4970083;28;20603;-43
2022/09/29 08:35:57;;;;;;;2.77;1.90;;;18.20;64.80;18.80;99386.00;;;;4971398;28;20288;-44
2022/09/29 08:38:23;;;;;;;3.00;1.80;;;18.20;64.80;18.80;99387.00;;;;4913129;28;21706;-44
2022/09/29 08:40:49;;;;;;;6.27;2.10;;;18.20;64.60;18.80;99383.00;;;;4959810;28;20190;-43
2022/09/29 08:43:44;;;;;;;3.70;2.17;;;18.20;64.90;18.80;99392.00;;;;4969268;28;20160;-42
2022/09/29 08:46:30;;;;;;;5.33;2.20;;;18.20;65.00;18.80;99399.00;;;;4951007;28;20706;-43
2022/09/29 08:48:55;;;;;;;3.97;2.03;;;18.20;65.10;18.80;99385.00;;;;4983472;28;20732;-43
2022/09/29 08:51:28;;;;;;;4.73;2.03;;;18.20;65.20;18.80;99395.00;;;;4984034;28;20199;-43
2022/09/29 08:53:54;;;;;;;2.73;2.00;;;18.20;65.30;18.80;99404.00;;;;4968527;28;20223;-44
2022/09/29 08:56:20;;;;;;;3.87;1.73;;;18.10;65.30;18.80;99400.00;;;;4968172;28;20215;-44
2022/09/29 08:58:45;;;;;;;2.43;1.80;;;18.10;65.30;18.80;99399.00;;;;4969218;28;20173;-44
2022/09/29 09:01:35;;;;;;;3.87;1.70;;;18.10;65.40;18.80;99402.00;;;;4968165;28;20214;-44
2022/09/29 09:04:35;;;;;;;6.23;2.20;;;18.10;65.40;18.80;99402.00;;;;4968902;28;20248;-44
2022/09/29 09:07:16;;;;;;;3.03;1.80;;;18.10;65.70;18.70;99399.00;;;;4968154;28;20259;-45
2022/09/29 09:09:55;;;;;;;5.90;2.10;;;18.10;66.00;18.70;99396.00;;;;4966613;28;20184;-44
2022/09/29 09:12:50;;;;;;;1.83;1.70;;;18.10;66.00;18.70;99406.00;;;;4952173;28;20165;-44
2022/09/29 09:15:54;;;;;;;2.77;1.83;;;18.00;65.90;18.70;99409.00;;;;4954320;28;20208;-43
2022/09/29 09:18:49;;;;;;;3.83;1.83;;;18.10;66.10;18.70;99401.00;;;;4969569;28;20191;-44
2022/09/29 09:21:23;;;;;;;4.23;2.00;;;18.10;66.20;18.40;99406.00;;;;4967444;28;20205;-44
2022/09/29 09:23:55;;;;;;;3.87;1.90;;;18.10;66.30;18.70;99411.00;;;;4966722;28;20281;-45
2022/09/29 09:26:32;;;;;;;3.73;1.90;;;18.10;66.40;18.70;99413.00;;;;4951901;28;20247;-42
2022/09/29 09:29:03;;;;;;;2.37;1.97;;;18.10;66.50;18.70;99412.00;;;;4968066;28;20184;-44
2022/09/29 09:31:45;;;;;;;2.90;1.70;;;18.00;66.40;18.70;99398.00;;;;4951984;28;20513;-44
2022/09/29 09:34:26;;;;;;;2.03;1.70;;;18.10;66.50;18.70;99406.00;;;;4953254;28;20180;-44
2022/09/29 09:37:02;;;;;;;3.10;1.93;;;18.00;66.60;18.70;99412.00;;;;4968389;28;20205;-44
2022/09/29 09:40:01;;;;;;;2.03;1.70;;;18.00;66.70;18.70;99409.00;;;;4933641;28;20168;-44
2022/09/29 09:42:32;;;;;;;2.67;1.60;;;18.00;66.70;18.70;99406.00;;;;4986572;28;20208;-45
2022/09/29 09:45:26;;;;;;;2.43;1.70;;;18.00;66.80;18.70;99416.00;;;;4987408;28;20204;-44
2022/09/29 09:48:37;;;;;;;3.40;1.70;;;18.00;66.80;18.70;99413.00;;;;4987162;28;20180;-43
2022/09/29 09:51:34;;;;;;;3.53;1.80;;;18.00;67.00;18.70;99415.00;;;;4987335;28;20818;-45
2022/09/29 09:54:04;;;;;;;2.53;1.70;;;18.00;67.20;18.60;99420.00;;;;4986954;28;20242;-43
2022/09/29 09:57:01;;;;;;;2.10;1.60;;;18.00;67.20;18.70;99414.00;;;;4986877;28;20192;-44
2022/09/29 09:59:44;;;;;;;3.93;2.07;;;18.00;67.30;18.70;99404.00;;;;4987227;28;20640;-44
2022/09/29 10:02:18;;;;;;;3.40;2.00;;;18.00;67.40;18.70;99410.00;;;;4986957;28;20210;-44
2022/09/29 10:04:44;;;;;;;5.03;1.77;;;18.10;67.70;18.70;99343.00;;;;4987245;28;20206;-45
2022/09/29 10:07:09;;;;;;;4.47;1.90;;;18.00;67.50;18.70;99413.00;;;;4986842;28;20176;-44
2022/09/29 10:09:35;;;;;;;6.40;1.97;;;18.00;67.70;18.70;99406.00;;;;4985626;28;20210;-45
2022/09/29 10:12:01;;;;;;;2.93;1.90;;;18.10;68.20;18.80;99426.00;;;;4950869;28;20197;-43
2022/09/29 10:14:27;;;;;;;3.80;1.80;;;18.10;68.20;18.80;99411.00;;;;4966178;28;20219;-44
2022/09/29 10:17:00;;;;;;;2.23;1.73;;;18.10;68.40;18.80;99411.00;;;;4967559;28;20662;-45
2022/09/29 10:19:54;;;;;;;3.13;1.83;;;18.10;68.50;18.80;99420.00;;;;4967495;28;20212;-44
2022/09/29 10:22:20;;;;;;;3.13;1.60;;;18.10;68.60;18.80;99413.00;;;;4968565;28;20315;-46
2022/09/29 10:24:46;;;;;;;3.40;1.70;;;18.10;68.50;18.80;99417.00;;;;4968825;28;20298;-45
2022/09/29 10:27:17;;;;;;;6.80;1.83;;;18.00;68.40;18.80;99408.00;;;;4967897;28;20181;-44
2022/09/29 10:29:48;;;;;;;3.00;1.83;;;18.10;68.40;18.80;99418.00;;;;4967425;28;20649;-44
2022/09/29 10:32:35;;;;;;;7.87;1.90;;;18.10;68.30;18.80;99421.00;;;;4953337;28;20168;-43
2022/09/29 10:35:15;;;;;;;3.70;2.00;;;18.10;68.40;18.80;99416.00;;;;4951862;29;20213;-44
2022/09/29 10:37:45;;;;;;;7.53;1.63;;;18.10;68.50;18.60;99430.00;;;;4949644;28;20208;-42
2022/09/29 10:40:20;;;;;;;5.93;2.10;;;18.20;68.40;18.90;99434.00;;;;4949717;28;20184;-44
2022/09/29 10:42:49;;;;;;;2.37;1.80;;;18.20;68.50;18.90;99426.00;;;;4991585;28;20278;-42
2022/09/29 10:45:24;;;;;;;3.53;1.53;;;18.20;68.20;18.90;99426.00;;;;4982746;28;20243;-45
2022/09/29 10:48:03;;;;;;;1.97;1.70;;;18.20;68.20;18.90;99423.00;;;;4970887;28;20176;-45
2022/09/29 10:50:47;;;;;;;2.37;1.90;;;18.20;68.30;18.90;99426.00;;;;4971374;28;20815;-42
2022/09/29 10:53:42;;;;;;;4.23;1.80;;;18.20;68.50;18.90;99431.00;;;;4970350;28;20199;-43
2022/09/29 10:56:28;;;;;;;2.70;1.80;;;18.30;69.00;18.90;99430.00;;;;4970371;28;20698;-44
2022/09/29 10:58:57;;;;;;;4.53;1.90;;;18.30;68.10;18.90;99418.00;;;;4971699;28;20219;-44
2022/09/29 11:01:24;;;;;;;6.40;1.97;;;18.30;68.00;18.90;99433.00;;;;4970772;28;20584;-45
2022/09/29 11:04:03;;;;;;;1.87;1.60;;;18.30;68.00;19.00;99417.00;;;;4970320;28;20263;-43
2022/09/29 11:06:35;;;;;;;2.10;1.70;;;18.30;68.10;19.00;99423.00;;;;4971823;28;20243;-44
2022/09/29 11:09:04;;;;;;;3.70;1.63;;;18.30;68.80;19.00;99445.00;;;;4970541;28;20157;-44
2022/09/29 11:11:38;;;;;;;3.80;1.57;;;18.30;68.00;19.00;99430.00;;;;4970603;28;20728;-44
2022/09/29 11:14:04;;;;;;;3.87;1.80;;;18.40;68.00;19.00;99432.00;;;;4970225;28;20182;-44
2022/09/29 11:16:36;;;;;;;2.30;1.70;;;18.40;68.10;19.10;99441.00;;;;4970678;28;20219;-43